Porto, Portugal

6:52 AM WEST on August 23, 2014 (GMT +0100)
Francisco Sa Carneiro | Change Station
CLOSE
Current Station
Airport
Location: Porto,
Elevation: 253 ft
Nearby Weather Stations

Elev 253 ft 41.23 °N, 8.68 °W | Updated 22 minutes ago

Clear
Clear
52 °F
Feels Like 52 °F
N
4
Wind Variable Wind from ENE

Today
High -- | Low -- °F
--% Chance of Precip.
Yesterday
High -- | Low -- °F
Precip. -- in
6:51 AM 8:22 PM
Waning Crescent, 5% visible
Pressure 30.06 in
Visibility -9999.0 miles
Clouds
Dew Point 50 °F
Humidity 94%
Rainfall 0.00 in
Snow Depth Not available.
UV Not available.
Pollen Not available.
Air Quality Not available.
Flu Activity Not available.
METAR LPPR 230530Z 06003KT 360V100 CAVOK 11/10 Q1018

More Conditions Fewer Conditions

Pressure 30.06 in
Visibility -9999.0 miles
Clouds
Dew Point 50 °F
Humidity 94%
Rainfall 0.00 in
Snow Depth Not available.
UV Not available.
Pollen Not available.
Air Quality Not available.
Flu Activity Not available.
METAR LPPR 230530Z 06003KT 360V100 CAVOK 11/10 Q1018

More Conditions Fewer Conditions

10-Day Weather Forecast

Almanac

Astronomy

Aug. 23, 2014 Rise Set
Actual Time 6:51 AM WEST 8:22 PM WEST
Civil Twilight 6:22 AM WEST 8:51 PM WEST
Nautical Twilight 5:47 AM WEST 9:25 PM WEST
Astronomical Twilight 5:10 AM WEST 10:02 PM WEST
Moon 4:55 AM WEST 6:59 PM WEST
Length of Visible Light 14h 28m
Length of Day
13h 30m
Tomorrow will be 2m 32s shorter.
Waning Crescent, 5% of the Moon is Illuminated
Today
Waning Crescent
Aug 25
New
Sep 2
First Quarter
Sep 8
Full
Sep 15
Last Quarter

Yesterday's Extremes

Country Highs Country Lows

Community

WunderPhotos

Upload Photos

1,746,372 photos uploaded!

WunderBlogs® & News

By Dr. Jeff Masters
Director of Meteorology, Weather Underground
By Kari Strenfel
Meteorologist, Weather Underground
By Christopher C. Burt
Weather Historian, Weather Underground
August 23, 2014
August 23, 2014
August 22, 2014

Nearby

Snow Depth

Not available.

Earthquake Activity

City Distance Mag. Time & Date
No recent earthquake activity has been reported nearby.
Minimum magnitude displayed is 2.5.

Coastal Water Temperatures

Place Temperature
No Stations Reporting

Nearby Weather Stations